Time;durP1;ratioP1;P1;durP2;ratioP2;P2;SDS_P1;SDS_P2;PMS_P1;PMS_P2;Temp;Humidity;BMP_temperature;BMP_pressure;BME280_temperature;BME280_humidity;BME280_pressure;Samples;Min_cycle;Max_cycle;Signal;HPM_P1;HPM_P2
2020/12/12 00:00:16;;;;;;;25.30;15.23;;;10.10;99.90;;;;;;5008371;28;20206;-86
2020/12/12 00:02:42;;;;;;;20.27;11.50;;;10.10;99.90;;;;;;5029743;28;20206;-86
2020/12/12 00:05:08;;;;;;;18.23;11.10;;;10.10;99.90;;;;;;5007998;28;20209;-86
2020/12/12 00:07:34;;;;;;;20.23;11.47;;;10.10;99.90;;;;;;5045627;28;20194;-86
2020/12/12 00:09:59;;;;;;;19.43;11.30;;;10.10;99.90;;;;;;5060057;28;20657;-86
2020/12/12 00:12:25;;;;;;;20.70;11.60;;;10.20;99.90;;;;;;5026726;28;20184;-86
2020/12/12 00:14:51;;;;;;;22.03;12.40;;;10.20;99.90;;;;;;5030300;28;20591;-86
2020/12/12 00:17:20;;;;;;;22.77;12.43;;;10.40;99.90;;;;;;5006483;28;20184;-86
2020/12/12 00:19:48;;;;;;;26.10;12.57;;;10.60;99.90;;;;;;5029804;28;20194;-87
2020/12/12 00:22:14;;;;;;;31.17;18.57;;;10.50;99.90;;;;;;5040192;28;20285;-86
2020/12/12 00:24:40;;;;;;;27.07;14.13;;;10.60;99.90;;;;;;5025238;28;20191;-86
2020/12/12 00:27:05;;;;;;;27.37;14.23;;;10.60;99.90;;;;;;5022630;28;20760;-86
2020/12/12 00:29:31;;;;;;;28.10;13.70;;;10.60;99.90;;;;;;5037145;28;20209;-86
2020/12/12 00:31:58;;;;;;;27.20;14.33;;;10.60;99.90;;;;;;5067256;28;20183;-86
2020/12/12 00:34:25;;;;;;;34.97;16.73;;;10.70;99.90;;;;;;5072516;28;20217;-86
2020/12/12 00:36:51;;;;;;;28.57;14.67;;;10.70;99.90;;;;;;5054312;28;20644;-86
2020/12/12 00:39:17;;;;;;;32.53;15.20;;;10.80;99.90;;;;;;5055599;28;20198;-86
2020/12/12 00:41:44;;;;;;;30.90;14.60;;;10.80;99.90;;;;;;5040956;28;20180;-87
2020/12/12 00:44:10;;;;;;;32.10;14.43;;;10.90;99.90;;;;;;5052404;28;20177;-87
2020/12/12 00:46:38;;;;;;;29.53;14.13;;;10.90;99.90;;;;;;5054258;28;20180;-87
2020/12/12 00:49:07;;;;;;;29.90;14.23;;;10.90;99.90;;;;;;5036906;28;20249;-87
2020/12/12 00:51:33;;;;;;;33.20;15.87;;;10.80;99.90;;;;;;5039169;28;20192;-87
2020/12/12 00:53:59;;;;;;;37.07;14.40;;;10.90;99.90;;;;;;5053929;28;20294;-86
2020/12/12 00:56:25;;;;;;;35.97;15.00;;;10.90;99.90;;;;;;5053315;28;20205;-86
2020/12/12 00:58:51;;;;;;;36.67;15.23;;;10.90;99.90;;;;;;5039673;28;20233;-86
2020/12/12 01:01:18;;;;;;;31.93;14.03;;;11.00;99.90;;;;;;5086751;28;20220;-86
2020/12/12 01:03:45;;;;;;;41.57;15.10;;;11.00;99.90;;;;;;5051355;28;20188;-86
2020/12/12 01:06:12;;;;;;;35.43;14.00;;;11.00;99.90;;;;;;5036352;28;20197;-86
2020/12/12 01:08:38;;;;;;;30.63;13.83;;;11.10;99.90;;;;;;5036936;28;20242;-86
2020/12/12 01:11:08;;;;;;;38.20;15.03;;;11.10;99.90;;;;;;5053451;28;20194;-86
2020/12/12 01:13:34;;;;;;;40.50;16.00;;;11.10;99.90;;;;;;5069661;28;20276;-86
2020/12/12 01:16:07;;;;;;;32.83;14.37;;;11.10;99.90;;;;;;5055100;28;20306;-86
2020/12/12 01:18:33;;;;;;;36.87;15.67;;;11.10;99.90;;;;;;5052648;28;20204;-87
2020/12/12 01:20:59;;;;;;;44.43;17.17;;;11.00;99.90;;;;;;5050127;28;20183;-86
2020/12/12 01:23:25;;;;;;;33.63;15.77;;;11.10;99.90;;;;;;5054649;28;20664;-85
2020/12/12 01:25:50;;;;;;;37.77;16.40;;;11.00;99.90;;;;;;5034520;28;20586;-86
2020/12/12 01:28:18;;;;;;;33.40;15.53;;;11.10;99.90;;;;;;5072531;28;20197;-86
2020/12/12 01:30:44;;;;;;;45.13;17.00;;;11.10;99.90;;;;;;5067140;28;20197;-87
2020/12/12 01:33:10;;;;;;;43.20;17.17;;;11.10;99.90;;;;;;5071724;28;20181;-86
2020/12/12 01:35:36;;;;;;;41.93;16.70;;;11.10;99.90;;;;;;5049708;28;20214;-88
2020/12/12 01:38:01;;;;;;;40.13;17.47;;;11.20;99.90;;;;;;5074824;28;20186;-87
2020/12/12 01:40:27;;;;;;;42.27;18.57;;;11.20;99.90;;;;;;5038695;28;20177;-87
2020/12/12 01:42:52;;;;;;;58.47;18.33;;;11.20;99.90;;;;;;5039446;28;20189;-87
2020/12/12 01:45:18;;;;;;;45.67;18.30;;;11.20;99.90;;;;;;5042066;28;20680;-87
2020/12/12 01:47:44;;;;;;;46.10;18.53;;;11.10;99.90;;;;;;5053643;28;20248;-85
2020/12/12 01:50:09;;;;;;;46.20;19.03;;;11.10;99.90;;;;;;5055864;28;20192;-86
2020/12/12 01:52:36;;;;;;;47.43;18.73;;;11.10;99.90;;;;;;5072206;28;20570;-86
2020/12/12 01:55:03;;;;;;;52.07;20.30;;;11.10;99.90;;;;;;5070499;28;20296;-86
2020/12/12 01:57:29;;;;;;;48.73;19.47;;;11.20;99.90;;;;;;5071149;28;20182;-85
2020/12/12 01:59:54;;;;;;;48.73;19.50;;;11.20;99.90;;;;;;5040372;28;20234;-85
2020/12/12 02:02:22;;;;;;;47.47;17.93;;;11.10;99.90;;;;;;5037589;28;20484;-86
2020/12/12 02:04:55;;;;;;;44.60;17.50;;;11.00;99.90;;;;;;5037204;28;20675;-86
2020/12/12 02:07:22;;;;;;;45.63;17.77;;;11.00;99.90;;;;;;5039731;28;20194;-86
2020/12/12 02:09:49;;;;;;;43.43;16.50;;;11.00;99.90;;;;;;5056334;28;20201;-85
2020/12/12 02:12:16;;;;;;;50.17;16.27;;;11.00;99.90;;;;;;5041150;28;20184;-85
2020/12/12 02:14:43;;;;;;;43.37;16.47;;;11.10;99.90;;;;;;5069065;28;20240;-86
2020/12/12 02:17:10;;;;;;;45.67;16.67;;;11.00;99.90;;;;;;5055324;28;20186;-85
2020/12/12 02:19:36;;;;;;;54.67;17.93;;;11.00;99.90;;;;;;5073098;28;20211;-85
2020/12/12 02:22:05;;;;;;;48.63;16.63;;;11.00;99.90;;;;;;5054057;28;20228;-86
2020/12/12 02:24:33;;;;;;;48.27;17.27;;;11.10;99.90;;;;;;5090684;28;20190;-86
2020/12/12 02:27:00;;;;;;;40.50;16.90;;;11.10;99.90;;;;;;5055982;28;20224;-86
2020/12/12 02:29:40;;;;;;;45.00;17.13;;;11.10;99.90;;;;;;5072952;28;20218;-86
2020/12/12 02:32:07;;;;;;;29.90;15.37;;;11.10;99.90;;;;;;5076591;28;20185;-86
2020/12/12 02:34:32;;;;;;;50.73;16.87;;;11.00;99.90;;;;;;5036945;28;20208;-86
2020/12/12 02:36:58;;;;;;;57.43;17.33;;;11.00;99.90;;;;;;5075361;28;20181;-85
2020/12/12 02:39:24;;;;;;;51.23;16.67;;;11.00;99.90;;;;;;5056419;28;20227;-86
2020/12/12 02:41:50;;;;;;;43.80;16.30;;;11.10;99.90;;;;;;5071746;28;20660;-86
2020/12/12 02:44:15;;;;;;;50.90;17.30;;;11.20;99.90;;;;;;5070841;28;20584;-86
2020/12/12 02:46:41;;;;;;;44.27;16.13;;;11.20;99.90;;;;;;5039835;28;20228;-87
2020/12/12 02:49:07;;;;;;;44.77;15.53;;;11.20;99.90;;;;;;5038687;28;20657;-86
2020/12/12 02:51:38;;;;;;;43.90;15.00;;;11.30;99.90;;;;;;5055465;28;20192;-86
2020/12/12 02:54:04;;;;;;;49.67;15.20;;;11.20;99.90;;;;;;5056779;28;20261;-86
2020/12/12 02:56:29;;;;;;;46.77;15.50;;;11.10;99.90;;;;;;5041264;28;20204;-86
2020/12/12 02:58:55;;;;;;;53.67;16.00;;;11.10;99.90;;;;;;5057404;28;20234;-87
2020/12/12 03:01:21;;;;;;;44.23;15.60;;;11.10;99.90;;;;;;5069997;28;20696;-86
2020/12/12 03:03:46;;;;;;;45.37;15.83;;;11.10;99.90;;;;;;5069335;28;20240;-86
2020/12/12 03:06:12;;;;;;;45.23;16.70;;;11.10;99.90;;;;;;5056569;28;20203;-86
2020/12/12 03:08:38;;;;;;;44.10;16.20;;;11.10;99.90;;;;;;5056142;28;20194;-86
2020/12/12 03:11:03;;;;;;;46.30;16.53;;;11.10;99.90;;;;;;5056678;28;20201;-86
2020/12/12 03:13:29;;;;;;;47.90;17.07;;;11.10;99.90;;;;;;5056810;28;20637;-86
2020/12/12 03:15:55;;;;;;;47.57;16.20;;;11.20;99.90;;;;;;5055614;28;21217;-86
2020/12/12 03:18:21;;;;;;;58.17;18.50;;;11.10;99.90;;;;;;5038755;28;20189;-87
2020/12/12 03:20:46;;;;;;;49.80;16.87;;;11.10;99.90;;;;;;5055271;28;20186;-87
2020/12/12 03:23:12;;;;;;;57.00;18.23;;;11.10;99.90;;;;;;5038930;28;20227;-87
2020/12/12 03:25:39;;;;;;;55.87;18.13;;;11.10;99.90;;;;;;5037416;28;20253;-86
2020/12/12 03:28:05;;;;;;;63.40;18.60;;;11.10;99.90;;;;;;5054825;28;20201;-85
2020/12/12 03:30:30;;;;;;;53.03;17.73;;;11.10;99.90;;;;;;5039238;28;20212;-87
2020/12/12 03:32:56;;;;;;;54.00;18.00;;;11.00;99.90;;;;;;5055694;28;20185;-87
2020/12/12 03:35:22;;;;;;;50.97;18.23;;;11.00;99.90;;;;;;5039254;28;20572;-87
2020/12/12 03:37:47;;;;;;;50.20;17.83;;;11.00;99.90;;;;;;5037735;28;20183;-87
2020/12/12 03:40:13;;;;;;;60.63;18.73;;;11.00;99.90;;;;;;5039501;28;20601;-86
2020/12/12 03:42:39;;;;;;;58.93;18.27;;;11.00;99.90;;;;;;5056821;28;20541;-87
2020/12/12 03:45:04;;;;;;;57.23;18.07;;;11.00;99.90;;;;;;5054316;28;20180;-86
2020/12/12 03:47:30;;;;;;;52.80;17.70;;;11.00;99.90;;;;;;5089132;28;20688;-86
2020/12/12 03:49:56;;;;;;;58.07;19.57;;;11.00;99.90;;;;;;5071500;28;20631;-84
2020/12/12 03:52:21;;;;;;;52.27;19.33;;;11.00;99.90;;;;;;5073400;28;20271;-86
2020/12/12 03:54:47;;;;;;;54.97;18.13;;;11.00;99.90;;;;;;5055429;28;20287;-86
2020/12/12 03:57:13;;;;;;;50.67;17.20;;;11.00;99.90;;;;;;5043559;28;20188;-86
2020/12/12 03:59:38;;;;;;;46.07;17.57;;;11.00;99.90;;;;;;5039849;28;20205;-86
2020/12/12 04:02:04;;;;;;;44.17;16.70;;;11.00;99.90;;;;;;5061742;28;20182;-86
2020/12/12 04:04:30;;;;;;;55.07;17.10;;;11.10;99.90;;;;;;5072142;28;20549;-86
2020/12/12 04:06:56;;;;;;;51.37;16.10;;;11.00;99.90;;;;;;5091961;28;20187;-87
2020/12/12 04:09:21;;;;;;;50.27;16.20;;;11.00;99.90;;;;;;5055293;28;20257;-87
2020/12/12 04:11:47;;;;;;;41.33;15.07;;;11.00;99.90;;;;;;5056643;28;20183;-87
2020/12/12 04:14:13;;;;;;;52.57;15.17;;;11.00;99.90;;;;;;5078699;28;20295;-86
2020/12/12 04:16:39;;;;;;;46.83;14.50;;;11.00;99.90;;;;;;5072017;28;20659;-87
2020/12/12 04:19:04;;;;;;;42.77;14.83;;;11.00;99.90;;;;;;5055372;28;20186;-86
2020/12/12 04:21:30;;;;;;;49.30;13.83;;;10.90;99.90;;;;;;5039110;28;20182;-85
2020/12/12 04:23:56;;;;;;;45.17;14.23;;;10.80;99.90;;;;;;5071805;28;20218;-86
2020/12/12 04:26:23;;;;;;;47.53;13.07;;;10.80;99.90;;;;;;5036953;28;20364;-86
2020/12/12 04:28:49;;;;;;;37.77;12.47;;;10.80;99.90;;;;;;5071074;28;20185;-86
2020/12/12 04:31:14;;;;;;;41.40;12.43;;;10.80;99.90;;;;;;5039339;28;20209;-85
2020/12/12 04:33:40;;;;;;;42.50;12.63;;;10.80;99.90;;;;;;5054729;28;20189;-85
2020/12/12 04:36:06;;;;;;;47.40;13.73;;;10.80;99.90;;;;;;5052535;28;20479;-85
2020/12/12 04:38:35;;;;;;;38.50;11.00;;;10.80;99.90;;;;;;5040247;28;20166;-85
2020/12/12 04:41:01;;;;;;;38.67;11.93;;;10.70;99.90;;;;;;5069382;28;20178;-85
2020/12/12 04:43:29;;;;;;;39.17;11.47;;;10.70;99.90;;;;;;5049343;28;20222;-86
2020/12/12 04:45:56;;;;;;;43.50;12.60;;;10.70;99.90;;;;;;5070466;28;20677;-86
2020/12/12 04:48:22;;;;;;;46.03;12.83;;;10.70;99.90;;;;;;5046496;28;20187;-85
2020/12/12 04:50:48;;;;;;;40.67;12.77;;;10.70;99.90;;;;;;5068284;28;20241;-85
2020/12/12 04:53:16;;;;;;;45.07;11.67;;;10.80;99.90;;;;;;5037723;28;20653;-86
2020/12/12 04:55:52;;;;;;;42.87;12.40;;;10.80;99.90;;;;;;5054772;28;20499;-85
2020/12/12 04:58:20;;;;;;;41.73;12.70;;;10.80;99.90;;;;;;5038317;28;20272;-86
2020/12/12 05:00:48;;;;;;;38.83;11.60;;;10.80;99.90;;;;;;5040181;28;20179;-86
2020/12/12 05:03:16;;;;;;;39.20;11.37;;;10.80;99.90;;;;;;5037336;28;20180;-86
2020/12/12 05:05:43;;;;;;;33.63;10.97;;;10.80;99.90;;;;;;5066953;28;20547;-85
2020/12/12 05:08:09;;;;;;;40.08;12.23;;;10.80;99.90;;;;;;5069531;28;20422;-86
2020/12/12 05:10:41;;;;;;;38.60;11.70;;;10.80;99.90;;;;;;5069230;28;20198;-86
2020/12/12 05:13:33;;;;;;;40.33;12.00;;;10.80;99.90;;;;;;5037617;28;20241;-85
2020/12/12 05:16:00;;;;;;;37.40;11.20;;;10.90;99.90;;;;;;5036079;28;20592;-86
2020/12/12 05:18:26;;;;;;;40.23;10.90;;;10.90;99.90;;;;;;5068518;28;20264;-85
2020/12/12 05:20:52;;;;;;;34.27;11.57;;;11.00;99.90;;;;;;5039111;28;20294;-85
2020/12/12 05:23:23;;;;;;;43.47;11.70;;;11.00;99.90;;;;;;5036676;28;20268;-85
2020/12/12 05:25:52;;;;;;;41.13;11.27;;;11.00;99.90;;;;;;5052612;28;20266;-84
2020/12/12 05:28:21;;;;;;;38.33;11.13;;;11.00;99.90;;;;;;5047724;28;20186;-84
2020/12/12 05:30:50;;;;;;;42.00;11.80;;;11.00;99.90;;;;;;5051190;28;20275;-84
2020/12/12 05:33:26;;;;;;;41.80;11.30;;;11.00;99.90;;;;;;5035226;28;20184;-84
2020/12/12 05:35:53;;;;;;;33.90;10.80;;;10.90;99.90;;;;;;5051166;28;20196;-85
2020/12/12 05:38:19;;;;;;;35.90;10.80;;;10.90;99.90;;;;;;5072279;28;20520;-84
2020/12/12 05:40:51;;;;;;;35.40;10.90;;;10.90;99.90;;;;;;5068925;28;20839;-84
2020/12/12 05:43:17;;;;;;;41.77;11.93;;;10.90;99.90;;;;;;5038805;28;20193;-84
2020/12/12 05:45:43;;;;;;;40.77;12.17;;;11.00;99.90;;;;;;5033962;28;20283;-84
2020/12/12 05:48:10;;;;;;;38.43;12.20;;;11.00;99.90;;;;;;5071134;28;20221;-83
2020/12/12 05:50:36;;;;;;;36.27;12.30;;;11.00;99.90;;;;;;5071225;28;20530;-84
2020/12/12 05:53:04;;;;;;;33.80;11.53;;;11.00;99.90;;;;;;5073418;28;20246;-84
2020/12/12 05:55:31;;;;;;;41.07;12.03;;;11.10;99.90;;;;;;5052338;28;20269;-83
2020/12/12 05:57:57;;;;;;;36.73;11.80;;;11.10;99.90;;;;;;5069990;28;20216;-85
2020/12/12 06:00:26;;;;;;;45.40;11.80;;;11.20;99.90;;;;;;5070335;28;20191;-85
2020/12/12 06:02:56;;;;;;;45.07;11.93;;;11.20;99.90;;;;;;5051406;28;20192;-84
2020/12/12 06:05:25;;;;;;;41.47;11.87;;;11.20;99.90;;;;;;5034007;28;20193;-85
2020/12/12 06:07:58;;;;;;;37.87;12.80;;;11.20;99.90;;;;;;5066721;28;20700;-84
2020/12/12 06:10:27;;;;;;;39.03;12.00;;;11.10;99.90;;;;;;5036510;28;20745;-84
2020/12/12 06:13:05;;;;;;;38.70;11.90;;;11.10;99.90;;;;;;5071282;28;20189;-85
2020/12/12 06:15:33;;;;;;;55.33;13.23;;;11.10;99.90;;;;;;5043575;28;20246;-85
2020/12/12 06:18:11;;;;;;;48.17;14.13;;;11.20;99.90;;;;;;5074877;28;20244;-84
2020/12/12 06:20:39;;;;;;;55.23;14.63;;;11.10;99.90;;;;;;5071020;28;20197;-85
2020/12/12 06:23:10;;;;;;;51.00;13.67;;;11.10;99.90;;;;;;5051411;28;20234;-85
2020/12/12 06:25:35;;;;;;;56.50;14.80;;;11.00;99.90;;;;;;5039101;28;20216;-84
2020/12/12 06:28:03;;;;;;;44.63;14.43;;;11.10;99.90;;;;;;5076375;28;20184;-85
2020/12/12 06:30:30;;;;;;;57.33;14.90;;;11.10;99.90;;;;;;5066545;28;20178;-85
2020/12/12 06:33:04;;;;;;;56.17;14.40;;;11.00;99.90;;;;;;5077747;28;20204;-83
2020/12/12 06:35:34;;;;;;;51.80;15.10;;;11.00;99.90;;;;;;5045308;28;20220;-83
2020/12/12 06:38:26;;;;;;;57.70;15.33;;;11.00;99.90;;;;;;5092138;28;20268;-85
2020/12/12 06:40:55;;;;;;;61.97;16.00;;;11.00;99.90;;;;;;5060331;28;20196;-85
2020/12/12 06:43:37;;;;;;;55.10;15.37;;;11.10;99.90;;;;;;5058090;28;20186;-84
2020/12/12 06:46:06;;;;;;;53.43;15.50;;;11.00;99.90;;;;;;5047815;28;20305;-85
2020/12/12 06:48:33;;;;;;;65.03;17.90;;;11.00;99.90;;;;;;5060521;28;20177;-85
2020/12/12 06:51:01;;;;;;;72.27;17.30;;;11.00;99.90;;;;;;5077511;28;20247;-85
2020/12/12 06:53:29;;;;;;;60.70;17.13;;;11.00;99.90;;;;;;5078007;28;20185;-85
2020/12/12 06:56:13;;;;;;;69.70;19.43;;;11.00;99.90;;;;;;5058578;28;20220;-85
2020/12/12 06:58:40;;;;;;;73.43;18.40;;;11.00;99.90;;;;;;5059553;28;20188;-85
2020/12/12 07:01:32;;;;;;;73.07;18.17;;;11.00;99.90;;;;;;5048632;28;20222;-84
2020/12/12 07:04:06;;;;;;;67.83;18.87;;;10.90;99.90;;;;;;5044724;28;20192;-85
2020/12/12 07:06:34;;;;;;;60.27;18.43;;;10.80;99.90;;;;;;5075812;28;20250;-85
2020/12/12 07:09:08;;;;;;;66.90;18.97;;;10.60;99.90;;;;;;5093210;28;20199;-86
2020/12/12 07:11:37;;;;;;;69.67;19.47;;;10.60;99.90;;;;;;5047223;28;20196;-85
2020/12/12 07:14:03;;;;;;;77.30;21.27;;;10.70;99.90;;;;;;5059525;28;20182;-86
2020/12/12 07:16:30;;;;;;;73.07;21.43;;;10.80;99.90;;;;;;5055058;28;20201;-86
2020/12/12 07:18:56;;;;;;;74.37;21.70;;;10.70;99.90;;;;;;5040356;28;20276;-86
2020/12/12 07:21:22;;;;;;;83.53;21.30;;;10.80;99.90;;;;;;5070933;28;20298;-86
2020/12/12 07:23:49;;;;;;;64.13;20.37;;;10.80;99.90;;;;;;5069881;28;20223;-86
2020/12/12 07:26:15;;;;;;;80.53;22.10;;;10.80;99.90;;;;;;5053256;28;20213;-84
2020/12/12 07:28:41;;;;;;;73.20;21.80;;;10.80;99.90;;;;;;5057962;28;20181;-86
2020/12/12 07:31:07;;;;;;;83.97;21.83;;;10.80;99.90;;;;;;5042347;28;20193;-85
2020/12/12 07:33:33;;;;;;;77.13;22.30;;;10.80;99.90;;;;;;5039806;28;20192;-86
2020/12/12 07:35:59;;;;;;;83.93;22.43;;;10.70;99.90;;;;;;5057300;28;20201;-86
2020/12/12 07:38:25;;;;;;;78.17;22.43;;;10.70;99.90;;;;;;5038550;28;20190;-86
2020/12/12 07:40:51;;;;;;;77.40;23.57;;;10.70;99.90;;;;;;5055165;28;20186;-84
2020/12/12 07:43:17;;;;;;;72.13;23.33;;;10.70;99.90;;;;;;5054767;28;20186;-85
2020/12/12 07:45:58;;;;;;;73.17;23.43;;;10.70;99.90;;;;;;5071935;28;20221;-84
2020/12/12 07:48:23;;;;;;;72.40;24.37;;;10.70;99.90;;;;;;5040210;28;20194;-84
2020/12/12 07:50:49;;;;;;;79.37;24.33;;;10.70;99.90;;;;;;5040850;28;20192;-84
2020/12/12 07:53:17;;;;;;;78.47;24.23;;;10.70;99.90;;;;;;5067400;28;20187;-84
2020/12/12 07:55:52;;;;;;;77.67;24.93;;;10.70;99.90;;;;;;5047184;28;20217;-85
2020/12/12 07:58:20;;;;;;;95.13;26.90;;;10.70;99.90;;;;;;5035902;28;20196;-85
2020/12/12 08:00:54;;;;;;;81.53;25.93;;;10.70;99.90;;;;;;5041972;28;20170;-83
2020/12/12 08:03:20;;;;;;;78.73;25.93;;;10.70;99.90;;;;;;5053965;28;20597;-85
2020/12/12 08:05:45;;;;;;;92.47;27.60;;;10.80;99.90;;;;;;5039828;28;20272;-87
2020/12/12 08:08:11;;;;;;;104.17;31.23;;;10.80;99.90;;;;;;5070520;28;20211;-84
2020/12/12 08:10:37;;;;;;;106.63;31.83;;;10.80;99.90;;;;;;5057266;28;20565;-85
2020/12/12 08:13:03;;;;;;;112.03;32.00;;;10.80;99.90;;;;;;5036162;28;20189;-84
2020/12/12 08:15:43;;;;;;;104.70;31.57;;;10.90;99.90;;;;;;5072896;28;20201;-86
2020/12/12 08:18:13;;;;;;;101.73;31.23;;;10.90;99.90;;;;;;5053515;28;20195;-86
2020/12/12 08:20:39;;;;;;;128.97;40.77;;;10.90;99.90;;;;;;5053140;28;20179;-86
2020/12/12 08:23:06;;;;;;;107.07;32.67;;;10.90;99.90;;;;;;5055237;28;20701;-86
2020/12/12 08:25:34;;;;;;;95.30;31.03;;;10.90;99.90;;;;;;5036514;28;20687;-86
2020/12/12 08:28:05;;;;;;;91.73;31.20;;;10.90;99.90;;;;;;5085740;28;20219;-86
2020/12/12 08:30:31;;;;;;;113.97;33.27;;;10.90;99.90;;;;;;5037901;28;20644;-85
2020/12/12 08:32:57;;;;;;;88.93;29.77;;;11.00;99.90;;;;;;5050822;28;20197;-84
2020/12/12 08:35:29;;;;;;;81.57;28.33;;;11.00;99.90;;;;;;5059540;28;20229;-85
2020/12/12 08:37:55;;;;;;;75.37;27.23;;;11.00;99.90;;;;;;5044116;28;20192;-84
2020/12/12 08:40:21;;;;;;;79.40;28.20;;;11.00;99.90;;;;;;5065982;28;20180;-84
2020/12/12 08:42:58;;;;;;;81.70;30.13;;;11.00;99.90;;;;;;5032337;28;20268;-84
2020/12/12 08:45:25;;;;;;;79.60;26.57;;;11.00;99.90;;;;;;5035344;28;20572;-84
2020/12/12 08:48:15;;;;;;;75.50;29.40;;;11.10;99.90;;;;;;5033257;28;20295;-85
2020/12/12 08:50:58;;;;;;;83.50;29.70;;;11.00;99.90;;;;;;5047939;28;20206;-85
2020/12/12 08:53:27;;;;;;;74.53;25.50;;;11.00;99.90;;;;;;5064577;28;20212;-85
2020/12/12 08:56:09;;;;;;;67.73;27.27;;;11.00;99.90;;;;;;5064022;28;20664;-85
2020/12/12 08:58:40;;;;;;;65.03;26.17;;;11.00;99.90;;;;;;5034592;28;20192;-84
2020/12/12 09:01:10;;;;;;;65.57;25.57;;;11.00;99.90;;;;;;5049575;28;20192;-85
2020/12/12 09:03:50;;;;;;;68.20;24.47;;;11.00;99.90;;;;;;5049261;28;20199;-85
2020/12/12 09:06:16;;;;;;;57.77;23.70;;;11.00;99.90;;;;;;5037364;28;20189;-84
2020/12/12 09:08:42;;;;;;;71.43;29.30;;;10.90;99.90;;;;;;5031831;28;20682;-84
2020/12/12 09:11:16;;;;;;;65.00;25.20;;;11.00;99.90;;;;;;5064794;28;20216;-85
2020/12/12 09:13:41;;;;;;;61.60;23.77;;;11.10;99.90;;;;;;5065522;28;20200;-85
2020/12/12 09:16:09;;;;;;;63.43;25.00;;;11.10;99.90;;;;;;5032017;28;20200;-84
2020/12/12 09:18:45;;;;;;;59.40;24.33;;;11.10;99.90;;;;;;5032075;28;20207;-84
2020/12/12 09:21:12;;;;;;;63.90;25.27;;;11.20;99.90;;;;;;5031939;28;20180;-84
2020/12/12 09:23:41;;;;;;;62.63;23.77;;;11.30;99.90;;;;;;5032971;28;20482;-84
2020/12/12 09:26:07;;;;;;;61.43;22.53;;;11.30;99.90;;;;;;5032513;28;20332;-84
2020/12/12 09:28:36;;;;;;;56.23;23.37;;;11.20;99.90;;;;;;5082294;28;20211;-84
2020/12/12 09:31:05;;;;;;;55.63;23.60;;;11.20;99.90;;;;;;5049241;28;20211;-85
2020/12/12 09:33:36;;;;;;;62.40;23.17;;;11.10;99.90;;;;;;5032368;28;20281;-85
2020/12/12 09:36:03;;;;;;;62.33;22.90;;;11.10;99.90;;;;;;5049749;28;20204;-85
2020/12/12 09:38:32;;;;;;;52.83;22.27;;;11.10;99.90;;;;;;5049252;28;20181;-85
2020/12/12 09:40:58;;;;;;;55.80;23.27;;;11.20;99.90;;;;;;5047054;28;20686;-86
2020/12/12 09:43:24;;;;;;;56.37;23.00;;;11.20;99.90;;;;;;5037125;28;20202;-86
2020/12/12 09:45:50;;;;;;;59.57;23.40;;;11.20;99.90;;;;;;5034510;28;20200;-85
2020/12/12 09:48:16;;;;;;;55.70;22.60;;;11.20;99.90;;;;;;5043929;28;20189;-86
2020/12/12 09:50:41;;;;;;;58.13;23.43;;;11.30;99.90;;;;;;5049745;28;20310;-85
2020/12/12 09:53:09;;;;;;;64.73;24.53;;;11.20;99.90;;;;;;5027446;28;20251;-84
2020/12/12 09:55:39;;;;;;;56.13;23.87;;;11.40;99.90;;;;;;5051130;28;20219;-84
2020/12/12 09:58:06;;;;;;;64.30;25.90;;;11.40;99.90;;;;;;5035294;28;20182;-85
2020/12/12 10:00:36;;;;;;;66.17;25.87;;;11.40;99.90;;;;;;5058053;28;20181;-85
2020/12/12 10:03:02;;;;;;;67.00;25.30;;;11.30;99.90;;;;;;5057193;28;20175;-85
2020/12/12 10:05:28;;;;;;;67.60;25.47;;;11.40;99.90;;;;;;5090003;28;20178;-85
2020/12/12 10:07:55;;;;;;;62.70;25.33;;;11.40;99.90;;;;;;5041168;28;20209;-85
2020/12/12 10:10:22;;;;;;;62.93;23.87;;;11.50;99.90;;;;;;5090547;28;20569;-85
2020/12/12 10:12:47;;;;;;;60.17;25.27;;;11.60;99.90;;;;;;5069605;28;20239;-84
2020/12/12 10:15:14;;;;;;;63.33;25.63;;;11.60;99.90;;;;;;5054047;28;20206;-85
2020/12/12 10:17:40;;;;;;;56.93;24.83;;;11.60;99.90;;;;;;5052723;28;20217;-85
2020/12/12 10:20:09;;;;;;;61.87;24.97;;;11.60;99.90;;;;;;5071721;28;20187;-85
2020/12/12 10:22:34;;;;;;;56.50;23.40;;;11.60;99.90;;;;;;5074926;28;20186;-85
2020/12/12 10:25:00;;;;;;;63.20;23.83;;;11.50;99.90;;;;;;5041131;28;20276;-84
2020/12/12 10:27:27;;;;;;;58.80;25.40;;;11.50;99.90;;;;;;5054671;28;20234;-84
2020/12/12 10:29:52;;;;;;;60.07;25.93;;;11.50;99.90;;;;;;5065698;28;20542;-86
2020/12/12 10:32:18;;;;;;;51.87;23.20;;;11.50;99.90;;;;;;5055433;28;20191;-84
2020/12/12 10:34:44;;;;;;;57.67;24.33;;;11.50;99.90;;;;;;5033967;28;20195;-84
2020/12/12 10:37:09;;;;;;;55.57;23.60;;;11.70;99.90;;;;;;5070530;28;20668;-85
2020/12/12 10:39:41;;;;;;;56.13;24.50;;;11.70;99.90;;;;;;5039185;28;20639;-85
2020/12/12 10:42:06;;;;;;;51.50;24.40;;;11.70;99.90;;;;;;5070502;28;20193;-85
2020/12/12 10:44:32;;;;;;;66.67;27.07;;;11.80;99.90;;;;;;5040923;28;20177;-84
2020/12/12 10:46:58;;;;;;;59.93;25.03;;;11.90;99.90;;;;;;5073163;28;20189;-83
2020/12/12 10:49:24;;;;;;;59.43;24.67;;;12.00;99.90;;;;;;5053916;28;20209;-89
2020/12/12 10:51:53;;;;;;;56.80;23.27;;;12.10;99.90;;;;;;5091454;28;20177;-85
2020/12/12 10:54:19;;;;;;;49.70;21.97;;;12.20;99.90;;;;;;5068424;28;20199;-85
2020/12/12 10:56:46;;;;;;;55.57;26.20;;;12.30;99.90;;;;;;5057202;28;20326;-85
2020/12/12 10:59:12;;;;;;;53.20;24.77;;;12.30;99.90;;;;;;5055665;28;20242;-86
2020/12/12 11:01:38;;;;;;;52.43;25.63;;;12.30;99.90;;;;;;5055441;28;20637;-85
2020/12/12 11:04:05;;;;;;;54.80;23.93;;;12.30;99.90;;;;;;5065558;28;20221;-87
2020/12/12 11:06:32;;;;;;;46.90;21.67;;;12.20;99.90;;;;;;5053730;28;20234;-87
2020/12/12 11:08:58;;;;;;;50.97;24.40;;;12.20;99.90;;;;;;5053791;28;20210;-86
2020/12/12 11:11:24;;;;;;;53.20;24.40;;;12.10;99.90;;;;;;5056317;28;20203;-87
2020/12/12 11:13:50;;;;;;;47.17;21.87;;;12.10;99.90;;;;;;5042201;28;20187;-86
2020/12/12 11:16:23;;;;;;;48.13;23.53;;;12.10;99.90;;;;;;5071738;28;20815;-87
2020/12/12 11:18:51;;;;;;;53.77;22.50;;;12.10;99.90;;;;;;5072300;28;20205;-86
2020/12/12 11:21:22;;;;;;;51.60;23.17;;;12.10;99.90;;;;;;5038017;28;20201;-86
2020/12/12 11:23:47;;;;;;;48.33;22.50;;;12.20;99.90;;;;;;5087839;28;20589;-86
2020/12/12 11:26:14;;;;;;;51.73;22.30;;;12.30;99.90;;;;;;5056653;28;20309;-86
2020/12/12 11:28:42;;;;;;;45.97;21.83;;;12.20;99.90;;;;;;5054714;28;20538;-86
2020/12/12 11:31:08;;;;;;;51.33;23.50;;;12.10;99.90;;;;;;5036599;28;20240;-86
2020/12/12 11:33:38;;;;;;;48.43;22.17;;;12.20;99.90;;;;;;5071185;28;20183;-86
2020/12/12 11:36:30;;;;;;;48.40;21.57;;;12.30;99.90;;;;;;5069961;28;20206;-86
2020/12/12 11:46:58;;;;;;;43.77;19.77;;;12.40;99.90;;;;;;5052402;28;20194;-87
2020/12/12 11:49:24;;;;;;;48.57;20.90;;;12.50;99.90;;;;;;5085445;28;20270;-88
2020/12/12 11:51:50;;;;;;;49.27;21.37;;;12.50;99.90;;;;;;5041813;28;20724;-87
2020/12/12 11:54:16;;;;;;;44.77;20.63;;;12.50;99.90;;;;;;5054991;28;20221;-88
2020/12/12 11:56:41;;;;;;;49.20;21.77;;;12.40;99.90;;;;;;5040246;28;20212;-87
2020/12/12 11:59:10;;;;;;;53.10;22.43;;;12.50;99.90;;;;;;5034917;28;20215;-88
2020/12/12 12:01:35;;;;;;;46.50;23.53;;;12.50;99.90;;;;;;5088763;28;20202;-91
2020/12/12 12:04:01;;;;;;;47.50;21.93;;;12.60;99.90;;;;;;5044404;28;20199;-89
2020/12/12 12:06:27;;;;;;;55.07;22.30;;;12.70;99.90;;;;;;5071578;28;21639;-89
2020/12/12 12:11:31;;;;;;;53.73;23.97;;;12.60;99.90;;;;;;5067352;28;20195;-88
2020/12/12 12:14:05;;;;;;;48.77;22.87;;;12.60;99.90;;;;;;5074805;28;20209;-89
2020/12/12 12:16:41;;;;;;;55.17;22.57;;;12.40;99.90;;;;;;5051405;28;20213;-86
2020/12/12 12:19:09;;;;;;;57.93;24.10;;;12.40;99.90;;;;;;5070176;28;20298;-91
2020/12/12 12:21:36;;;;;;;50.60;22.07;;;12.30;99.90;;;;;;5087618;28;20196;-91
2020/12/12 12:24:07;;;;;;;57.87;22.93;;;12.40;99.90;;;;;;5053524;28;20184;-89
2020/12/12 12:26:37;;;;;;;54.97;23.00;;;12.40;99.90;;;;;;5071009;28;20374;-92
2020/12/12 12:29:07;;;;;;;52.57;21.63;;;12.40;99.90;;;;;;5041704;28;20259;-90
2020/12/12 12:31:37;;;;;;;54.73;22.20;;;12.40;99.90;;;;;;5047543;28;20230;-90
2020/12/12 12:34:02;;;;;;;57.43;22.50;;;12.30;99.90;;;;;;5052488;28;20194;-91
2020/12/12 12:36:29;;;;;;;53.73;23.03;;;12.40;99.90;;;;;;5037487;28;20258;-89
2020/12/12 12:38:57;;;;;;;59.10;25.17;;;12.40;99.90;;;;;;5050737;28;20198;-92